Flight Track Log - Related Links

Times and Time Zones

All times are in EDT time to prevent confusion due to time zone crossing. See the AAL969 flight status page for this flight to view local times or setup timezone preferences in your user account.

Time Position Orientation Groundspeed Altitude Reporting Facility
EDT Latitude Longitude Course Direction KTS MPH feet Rate Location/Type
Sun 07:05:26 AM 32.8390 -97.0300 103° East 191 220 2,700  Level FlightAware ADS-B
Sun 07:06:00 AM 32.6874 -96.9536 103° East  Level FlightAware Approximate
Sun 07:06:05 AM 32.7990 -97.0300 180° South 233 268 3,500  Level FlightAware ADS-B
Sun 07:06:19 AM 32.7840 -97.0300 180° South 244 281 4,100 2,870 Climbing FlightAware ADS-B
Sun 07:06:51 AM 32.7480 -97.0210 168° South 253 291 5,700 2,591 Climbing FlightAware ADS-B
Sun 07:07:03 AM 32.7380 -97.0080 132° Southeast 273 314 6,000 1,750 Climbing FlightAware ADS-B
Sun 07:07:15 AM 32.7320 -96.9910 113° Southeast 285 328 6,400 2,211 Climbing FlightAware ADS-B
Sun 07:07:22 AM 32.7320 -96.9800 90° East 289 333 6,700 3,682 Climbing FlightAware ADS-B
Sun 07:07:59 AM 32.7350 -96.9250 86° East 277 319 9,100 2,883 Climbing FlightAware ADS-B
Sun 07:08:39 AM 32.7380 -96.8600 87° East 309 356 10,400 1,857 Climbing FlightAware ADS-B
Sun 07:09:23 AM 32.7420 -96.7790 87° East 352 405 11,700 1,929 Climbing FlightAware ADS-B
Sun 07:10:03 AM 32.7460 -96.6990 87° East 374 430 13,100 2,357 Climbing FlightAware ADS-B
Sun 07:10:47 AM 32.7500 -96.6070 87° East 386 444 15,000 2,261 Climbing FlightAware ADS-B
Sun 07:12:21 AM 32.7570 -96.4250 87° East 402 463 18,300 2,245 Climbing FlightAware ADS-B
Sun 07:13:06 AM 32.7561 -96.3016 90° East 415 478 20,200 2,320 Climbing FlightAware ADS-B
Sun 07:13:36 AM 32.7456 -96.2335 100° East 422 486 21,200 1,869 Climbing FlightAware ADS-B
Sun 07:14:07 AM 32.7346 -96.1625 100° East 429 494 22,100 1,692 Climbing FlightAware ADS-B
Sun 07:14:54 AM 32.7172 -96.0526 101° East 439 505 23,400 1,615 Climbing FlightAware ADS-B
Sun 07:15:25 AM 32.7057 -95.9799 101° East 445 512 24,200 1,569 Climbing FlightAware ADS-B
Sun 07:15:59 AM 32.6925 -95.8967 101° East 453 521 25,100 1,500 Climbing FlightAware ADS-B
Sun 07:16:29 AM 32.6807 -95.8229 101° East 460 529 25,800 1,378 Climbing FlightAware ADS-B
Sun 07:17:13 AM 32.6630 -95.7130 101° East 467 537 26,800 1,309 Climbing FlightAware ADS-B
Sun 07:17:24 AM 32.6602 -95.6841 97° East 468 539 27,000 1,600 Climbing FlightAware ADS-B
Sun 07:17:43 AM 32.6587 -95.6361 92° East 466 536 27,600 1,647 Climbing FlightAware ADS-B
Sun 07:18:15 AM 32.6636 -95.5539 86° East 465 535 28,400 1,417 Climbing FlightAware ADS-B
Sun 07:18:55 AM 32.6704 -95.4547 85° East 466 536 29,300 1,279 Climbing FlightAware ADS-B
Sun 07:19:16 AM 32.6696 -95.3999 91° East 470 541 29,700 1,200 Climbing FlightAware ADS-B
Sun 07:19:25 AM 32.6652 -95.3778 103° East 472 543 29,900 1,125 Climbing FlightAware ADS-B
Sun 07:19:32 AM 32.6599 -95.3599 109° East 475 547 30,000 1,200 Climbing FlightAware ADS-B
Sun 07:19:40 AM 32.6522 -95.3407 115° Southeast 478 550 30,200 1,385 Climbing FlightAware ADS-B
Sun 07:19:45 AM 32.6474 -95.3307 120° Southeast 479 551 30,300 1,200 Climbing FlightAware ADS-B
Sun 07:20:15 AM 32.6138 -95.2621 120° Southeast 480 552 30,900 1,100 Climbing FlightAware ADS-B
Sun 07:20:45 AM 32.5800 -95.1923 120° Southeast 485 558 31,400 1,082 Climbing FlightAware ADS-B
Sun 07:21:16 AM 32.5463 -95.1224 120° Southeast 485 558 32,000 1,324 Climbing FlightAware ADS-B
Sun 07:21:53 AM 32.5049 -95.0367 120° Southeast 481 554 32,900 1,412 Climbing FlightAware ADS-B
Sun 07:22:24 AM 32.4706 -94.9659 120° Southeast 480 552 33,600 1,258 Climbing FlightAware ADS-B
Sun 07:22:55 AM 32.4365 -94.8972 120° Southeast 477 549 34,200 1,258 Climbing FlightAware ADS-B
Sun 07:23:26 AM 32.4009 -94.8259 121° Southeast 473 544 34,900 1,258 Climbing FlightAware ADS-B
Sun 07:23:57 AM 32.3675 -94.7588 120° Southeast 473 544 35,500 1,143 Climbing FlightAware ADS-B
Sun 07:24:29 AM 32.3320 -94.6874 120° Southeast 470 541 36,100 1,161 Climbing FlightAware ADS-B
Sun 07:24:59 AM 32.2987 -94.6210 121° Southeast 468 539 36,700 885 Climbing FlightAware ADS-B
Sun 07:25:30 AM 32.2648 -94.5539 121° Southeast 467 537 37,000 295 Climbing FlightAware ADS-B
Sun 07:26:00 AM 32.2318 -94.4873 120° Southeast 469 540 37,000  Level FlightAware ADS-B
Sun 07:26:31 AM 32.1986 -94.4195 120° Southeast 470 541 37,000  Level FlightAware ADS-B
Sun 07:27:01 AM 32.1649 -94.3519 120° Southeast 471 542 37,000  Level FlightAware ADS-B
Sun 07:28:02 AM 32.0971 -94.2176 121° Southeast 473 544 37,000  Level FlightAware ADS-B
Sun 07:29:02 AM 32.0295 -94.0844 121° Southeast 473 544 37,000  Level FlightAware ADS-B
Sun 07:29:32 AM 31.9960 -94.0184 121° Southeast 471 542 37,000  Level FlightAware ADS-B
Sun 07:30:02 AM 31.9623 -93.9520 121° Southeast 470 541 37,000  Level FlightAware ADS-B
Sun 07:30:38 AM 31.9229 -93.8748 121° Southeast 470 541 37,000  Level FlightAware ADS-B
Sun 07:31:12 AM 31.8844 -93.7995 121° Southeast 469 540 37,000  Level FlightAware ADS-B
Sun 07:31:42 AM 31.8508 -93.7336 121° Southeast 467 537 37,000  Level FlightAware ADS-B
Sun 07:32:13 AM 31.8172 -93.6678 121° Southeast 467 537 37,000  Level FlightAware ADS-B
Sun 07:32:44 AM 31.7826 -93.6006 121° Southeast 466 536 37,000  Level FlightAware ADS-B
Sun 07:33:16 AM 31.7462 -93.5296 121° Southeast 466 536 37,000  Level FlightAware ADS-B
Sun 07:33:47 AM 31.7129 -93.4646 121° Southeast 466 536 37,000  Level FlightAware ADS-B
Sun 07:34:17 AM 31.6792 -93.3992 121° Southeast 466 536 37,000  Level FlightAware ADS-B
Sun 07:34:49 AM 31.6430 -93.3289 121° Southeast 466 536 37,000  Level FlightAware ADS-B
Sun 07:35:19 AM 31.6095 -93.2640 121° Southeast 466 536 37,000  Level FlightAware ADS-B
Sun 07:36:17 AM 31.5457 -93.1404 121° Southeast 464 534 37,000  Level FlightAware ADS-B
Sun 07:36:49 AM 31.5101 -93.0719 121° Southeast 464 534 37,000  Level FlightAware ADS-B
Sun 07:37:28 AM 31.4666 -92.9883 121° Southeast 466 536 37,000  Level FlightAware ADS-B
Sun 07:38:00 AM 31.4298 -92.9178 121° Southeast 469 540 37,000  Level FlightAware ADS-B
Sun 07:38:30 AM 31.3960 -92.8529 121° Southeast 470 541 37,000  Level FlightAware ADS-B
Sun 07:39:02 AM 31.3605 -92.7855 122° Southeast 470 541 37,000  Level FlightAware ADS-B
Sun 07:39:33 AM 31.3252 -92.7186 122° Southeast 469 540 37,000  Level FlightAware ADS-B
Sun 07:40:03 AM 31.2903 -92.6521 122° Southeast 469 540 37,000  Level FlightAware ADS-B
Sun 07:40:34 AM 31.2554 -92.5859 122° Southeast 469 540 37,000  Level FlightAware ADS-B
Sun 07:41:07 AM 31.2177 -92.5144 122° Southeast 470 541 37,000  Level FlightAware ADS-B
Sun 07:42:23 AM 31.1322 -92.3523 122° Southeast 470 541 37,000  Level FlightAware ADS-B
Sun 07:42:54 AM 31.0958 -92.2836 122° Southeast 470 541 37,000  Level FlightAware ADS-B
Sun 07:43:25 AM 31.0611 -92.2184 122° Southeast 471 542 37,000  Level FlightAware ADS-B
Sun 07:48:03 AM 30.7414 -91.6209 122° Southeast 472 543 37,000  Level FlightAware ADS-B
Sun 07:48:46 AM 30.6915 -91.5285 122° Southeast 473 544 37,000  Level FlightAware ADS-B
Sun 07:49:45 AM 30.6231 -91.4023 122° Southeast 474 545 37,000  Level FlightAware ADS-B
Sun 07:50:15 AM 30.5873 -91.3366 122° Southeast 473 544 37,000  Level FlightAware ADS-B
Sun 07:50:54 AM 30.5421 -91.2541 122° Southeast 473 544 37,000  Level FlightAware ADS-B
Sun 07:51:25 AM 30.5063 -91.1885 122° Southeast 470 541 37,000  Level FlightAware ADS-B
Sun 07:51:57 AM 30.4690 -91.1203 122° Southeast 468 539 37,000  Level FlightAware ADS-B
Sun 07:52:27 AM 30.4339 -91.0559 122° Southeast 466 536 37,000  Level FlightAware ADS-B
Sun 07:52:58 AM 30.3984 -90.9909 122° Southeast 465 535 37,000  Level FlightAware ADS-B
Sun 07:54:50 AM 30.2710 -90.7590 122° Southeast 460 529 37,000  Level FlightAware ADS-B
Sun 07:55:39 AM 30.2240 -90.6720 122° Southeast 460 529 37,000  Level FlightAware ADS-B
Sun 07:56:15 AM 30.1900 -90.6080 122° Southeast 460 529 37,000  Level FlightAware ADS-B
Sun 07:57:14 AM 30.1060 -90.4610 123° Southeast 458 527 37,000  Level FlightAware ADS-B
Sun 07:57:54 AM 30.0610 -90.3800 123° Southeast 456 525 37,000  Level FlightAware ADS-B
Sun 07:58:34 AM 30.0160 -90.2990 123° Southeast 456 525 37,000  Level FlightAware ADS-B
Sun 07:59:13 AM 29.9700 -90.2170 123° Southeast 458 527 37,000  Level FlightAware ADS-B
Sun 07:59:49 AM 29.9290 -90.1430 123° Southeast 460 529 37,000  Level FlightAware ADS-B
Sun 08:00:27 AM 29.8920 -90.0780 123° Southeast 461 531 37,000  Level FlightAware ADS-B
Sun 08:01:11 AM 29.8300 -89.9760 125° Southeast 457 526 37,000  Level FlightAware ADS-B
Sun 08:01:51 AM 29.7770 -89.9030 130° Southeast 459 528 37,000  Level FlightAware ADS-B
Sun 08:02:35 AM 29.7160 -89.8200 130° Southeast 461 531 37,000  Level FlightAware ADS-B
Sun 08:03:14 AM 29.6620 -89.7470 130° Southeast 461 531 37,000  Level FlightAware ADS-B
Sun 08:03:51 AM 29.6110 -89.6770 130° Southeast 461 531 37,000  Level FlightAware ADS-B
Sun 08:04:38 AM 29.5480 -89.5920 130° Southeast 462 532 37,000  Level FlightAware ADS-B
Sun 08:05:17 AM 29.4930 -89.5170 130° Southeast 461 531 37,000  Level FlightAware ADS-B
Sun 08:06:03 AM 29.4290 -89.4310 130° Southeast 462 532 37,000  Level FlightAware ADS-B
Sun 08:06:43 AM 29.3730 -89.3550 130° Southeast 461 531 37,000  Level FlightAware ADS-B
Sun 08:07:29 AM 29.3090 -89.2710 131° Southeast 459 528 37,000  Level FlightAware ADS-B
Sun 08:08:13 AM 29.2530 -89.1850 127° Southeast 462 532 37,000  Level FlightAware ADS-B
Sun 08:08:53 AM 29.2210 -89.0950 112° Southeast 467 537 37,000  Level FlightAware ADS-B
Sun 08:09:31 AM 29.1940 -89.0050 109° East 467 537 37,000  Level FlightAware ADS-B
Sun 08:10:11 AM 29.1660 -88.9140 109° East 467 537 37,000  Level FlightAware ADS-B
Sun 08:10:51 AM 29.1370 -88.8180 109° East 467 537 37,000  Level FlightAware ADS-B
Sun 08:13:11 AM 29.0430 -88.5170 110° East 468 539 37,000  Level FlightAware ADS-B
Sun 08:13:52 AM 29.0160 -88.4290 109° East 468 539 37,000  Level FlightAware ADS-B
Sun 08:14:33 AM 28.9770 -88.3030 109° East 467 537 37,000  Level FlightAware ADS-B
Sun 08:15:17 AM 28.9440 -88.1990 110° East 466 536 37,000  Level FlightAware ADS-B
Sun 08:16:01 AM 28.9130 -88.0980 109° East 467 537 37,000  Level FlightAware ADS-B
Sun 08:16:49 AM 28.8780 -87.9880 110° East 467 537 37,000  Level FlightAware ADS-B
Sun 08:17:25 AM 28.8520 -87.9050 110° East 464 534 37,000  Level FlightAware ADS-B
Sun 08:18:05 AM 28.8230 -87.8120 110° East 462 532 37,000  Level FlightAware ADS-B
Sun 08:18:55 AM 28.7870 -87.6990 110° East 459 528 37,000  Level FlightAware ADS-B
Sun 08:19:29 AM 28.7620 -87.6200 110° East 456 525 37,000  Level FlightAware ADS-B
Sun 08:19:57 AM 28.7430 -87.5620 110° East 454 522 37,000  Level FlightAware ADS-B
Sun 08:20:55 AM 28.7010 -87.4300 110° East 452 520 37,000  Level FlightAware ADS-B
Sun 08:21:37 AM 28.6650 -87.3390 114° Southeast 453 521 37,000  Level FlightAware ADS-B
Sun 08:22:11 AM 28.6340 -87.2660 116° Southeast 454 522 37,000  Level FlightAware ADS-B
Sun 08:22:55 AM 28.5940 -87.1720 116° Southeast 453 521 37,000  Level FlightAware ADS-B
Sun 08:23:33 AM 28.5600 -87.0900 115° Southeast 452 520 37,000  Level FlightAware ADS-B
Sun 08:24:11 AM 28.5240 -87.0080 117° Southeast 450 518 37,000  Level FlightAware ADS-B
Sun 08:24:57 AM 28.4820 -86.9090 116° Southeast 450 518 37,000  Level FlightAware ADS-B
Sun 08:25:45 AM 28.4400 -86.8090 116° Southeast 451 519 37,000  Level FlightAware ADS-B
Sun 08:26:19 AM 28.4090 -86.7360 116° Southeast 451 519 37,000  Level FlightAware ADS-B
Sun 08:27:03 AM 28.3690 -86.6440 116° Southeast 451 519 37,000  Level FlightAware ADS-B
Sun 08:27:59 AM 28.3160 -86.5210 116° Southeast 450 518 37,000  Level FlightAware ADS-B
Sun 08:28:35 AM 28.2840 -86.4470 116° Southeast 451 519 37,000  Level FlightAware ADS-B
Sun 08:29:16 AM 28.2520 -86.3690 115° Southeast 451 519 37,000  Level FlightAware ADS-B
Sun 08:30:13 AM 28.2010 -86.2490 116° Southeast 451 519 37,000  Level FlightAware ADS-B
Sun 08:30:35 AM 28.1840 -86.2090 116° Southeast 451 519 37,000  Level FlightAware ADS-B
Sun 08:31:24 AM 28.1470 -86.1200 115° Southeast 451 519 37,000  Level FlightAware ADS-B
Sun 08:32:01 AM 28.1200 -86.0530 115° Southeast 451 519 37,000  Level FlightAware ADS-B
Sun 08:32:38 AM 28.0920 -85.9850 115° Southeast 451 519 37,000  Level FlightAware ADS-B
Sun 08:33:14 AM 28.0650 -85.9200 115° Southeast 451 519 37,000  Level FlightAware ADS-B
Sun 08:34:02 AM 28.0290 -85.8320 115° Southeast 451 519 37,000  Level FlightAware ADS-B
Sun 08:34:36 AM 28.0030 -85.7700 115° Southeast 451 519 37,000  Level FlightAware ADS-B
Sun 08:35:15 AM 27.9150 -85.5980 120° Southeast 445 512 37,000  Level FlightAware ADS-B
Sun 08:36:00 AM 27.8730 -85.5040 117° Southeast 443 510 37,000  Level FlightAware ADS-B
Sun 08:36:37 AM 27.8400 -85.4270 116° Southeast 445 512 37,000  Level FlightAware ADS-B
Sun 08:37:16 AM 27.8070 -85.3470 115° Southeast 442 509 37,000  Level FlightAware ADS-B
Sun 08:38:00 AM 27.7690 -85.2540 115° Southeast 441 507 37,000  Level FlightAware ADS-B
Sun 08:38:40 AM 27.7340 -85.1690 115° Southeast 441 507 37,000  Level FlightAware ADS-B
Sun 08:39:21 AM 27.6980 -85.0840 116° Southeast 443 510 37,000  Level FlightAware ADS-B
Sun 08:40:00 AM 27.6640 -85.0020 115° Southeast 444 511 37,000  Level FlightAware ADS-B
Sun 08:42:01 AM 27.5590 -84.7530 115° Southeast 451 519 37,000  Level FlightAware ADS-B
Sun 08:42:40 AM 27.5210 -84.6620 115° Southeast 451 519 37,000  Level FlightAware ADS-B
Sun 08:43:35 AM 27.4710 -84.5450 116° Southeast 449 517 37,000  Level FlightAware ADS-B
Sun 08:44:15 AM 27.4360 -84.4610 115° Southeast 449 517 37,000  Level FlightAware ADS-B
Sun 08:45:00 AM 27.3960 -84.3670 116° Southeast 450 518 37,000  Level FlightAware ADS-B
Sun 08:45:40 AM 27.3610 -84.2850 116° Southeast 451 519 37,000  Level FlightAware ADS-B
Sun 08:46:20 AM 27.3240 -84.1990 116° Southeast 451 519 37,000  Level FlightAware ADS-B
Sun 08:47:15 AM 27.2740 -84.0810 115° Southeast 453 521 37,000  Level FlightAware ADS-B
Sun 08:48:31 AM 27.2060 -83.9210 116° Southeast 453 521 37,000  Level FlightAware ADS-B
Sun 08:50:10 AM 27.1180 -83.7170 116° Southeast 454 522 37,000  Level FlightAware ADS-B
Sun 08:51:00 AM 27.0730 -83.6130 116° Southeast 454 522 37,000  Level FlightAware ADS-B
Sun 08:51:24 AM 27.0550 -83.5700 115° Southeast 454 522 37,000  Level FlightAware ADS-B
Sun 08:52:05 AM 27.0110 -83.4700 116° Southeast 453 521 37,000  Level FlightAware ADS-B
Sun 08:52:50 AM 26.9710 -83.3790 116° Southeast 453 521 37,000  Level FlightAware ADS-B
Sun 08:53:31 AM 26.9400 -83.3030 115° Southeast 453 521 37,000  Level FlightAware ADS-B
Sun 08:54:19 AM 26.9050 -83.2150 114° Southeast 453 521 37,000 -326 Level FlightAware ADS-B
Sun 08:54:50 AM 26.8570 -83.1170 119° Southeast 36,700 -519 Descending FlightAware ADS-B
Sun 08:55:40 AM 26.8150 -83.0190 116° Southeast 456 525 36,300 -279 Descending FlightAware ADS-B
Sun 08:56:16 AM 26.7870 -82.9530 115° Southeast 456 525 36,300 -1,360 Level FlightAware ADS-B
Sun 08:56:55 AM 26.7520 -82.8410 109° East 460 529 34,600 -1,685 Descending FlightAware ADS-B
Sun 08:57:45 AM 26.7180 -82.7300 109° East 459 528 33,800 -918 Descending FlightAware ADS-B
Sun 08:58:20 AM 26.6940 -82.6540 109° East 461 531 33,300 -615 Descending FlightAware ADS-B
Sun 08:59:03 AM 26.6650 -82.5600 109° East 461 531 33,000 -196 Descending FlightAware ADS-B
Sun 08:59:52 AM 26.6350 -82.4600 109° East 460 529 33,000  Level FlightAware ADS-B
Sun 09:01:14 AM 26.5760 -82.2580 108° East 461 531 33,000  Level FlightAware ADS-B
Sun 09:01:58 AM 26.5400 -82.1570 112° Southeast 464 534 33,000  Level FlightAware ADS-B
Sun 09:02:34 AM 26.5120 -82.0790 112° Southeast 465 535 33,000 -150 Level FlightAware ADS-B
Sun 09:03:18 AM 26.4740 -81.9800 113° Southeast 469 540 32,800  Descending FlightAware ADS-B
Sun 09:04:00 AM 26.4980 -82.0380 295° West 469 540 33,000 -1,043 Climbing FlightAware ADS-B
Sun 09:04:50 AM 26.4390 -81.9190 119° Southeast 474 545 31,200 -2,302 Descending FlightAware ADS-B
Sun 09:05:26 AM 26.3980 -81.8470 122° Southeast 466 536 29,700 -2,384 Descending FlightAware ADS-B
Sun 09:06:03 AM 26.3650 -81.7890 122° Southeast 464 534 28,300 -2,000 Descending FlightAware ADS-B
Sun 09:06:47 AM 26.3300 -81.7280 123° Southeast 459 528 27,000 -2,175 Descending FlightAware ADS-B
Sun 09:07:23 AM 26.2920 -81.6620 123° Southeast 454 522 25,400 -2,667 Descending FlightAware ADS-B
Sun 09:08:08 AM 26.2470 -81.5830 122° Southeast 453 521 23,400 -2,727 Descending FlightAware ADS-B
Sun 09:09:02 AM 26.1880 -81.4800 123° Southeast 443 510 20,900 -2,697 Descending FlightAware ADS-B
Sun 09:09:37 AM 26.1540 -81.4210 123° Southeast 442 509 19,400 -5,670 Descending FlightAware ADS-B
Sun 09:10:33 AM 25.9910 -81.1400 123° Southeast 403 464 12,300 -2,909 Descending FlightAware ADS-B
Sun 09:12:55 AM 25.9040 -80.9210 114° Southeast 293 337 9,800 -1,059 Descending FlightAware ADS-B
Sun 09:13:40 AM 25.8860 -80.8580 108° East 280 322 9,000 -1,280 Descending FlightAware ADS-B
Sun 09:14:10 AM 25.8710 -80.8040 107° East 276 318 8,200 -1,525 Descending FlightAware ADS-B
Sun 09:14:39 AM 25.8600 -80.7630 107° East 275 316 7,500 -1,358 Descending FlightAware ADS-B
Sun 09:15:03 AM 25.8510 -80.7310 107° East 272 313 7,000 -1,080 Descending FlightAware ADS-B
Sun 09:15:29 AM 25.8410 -80.6970 108° East 263 303 6,600 -1,179 Descending FlightAware ADS-B
Sun 09:15:59 AM 25.8300 -80.6580 107° East 252 290 5,900 -1,525 Descending FlightAware ADS-B
Sun 09:16:28 AM 25.8200 -80.6220 107° East 250 288 5,100 -1,680 Descending FlightAware ADS-B
Sun 09:16:49 AM 25.8130 -80.5970 107° East 249 287 4,500 -1,560 Descending FlightAware ADS-B
Sun 09:17:18 AM 25.8030 -80.5620 108° East 245 282 3,800 -1,222 Descending FlightAware ADS-B
Sun 09:17:43 AM 25.7950 -80.5310 106° East 242 278 3,400 -906 Descending FlightAware ADS-B
Sun 09:18:11 AM 25.7860 -80.5000 108° East 240 276 3,000 -982 Descending FlightAware ADS-B
Sun 09:18:38 AM 25.7790 -80.4650 103° East 245 282 2,500 -1,279 Descending FlightAware ADS-B
Sun 09:19:12 AM 25.7820 -80.4220 86° East 225 259 1,700 -1,286 Descending FlightAware ADS-B
Sun 09:19:34 AM 25.7830 -80.3970 87° East 206 237 1,300 -913 Descending FlightAware ADS-B
Sun 09:19:58 AM 25.7840 -80.3740 87° East 181 208 1,000 -857 Descending FlightAware ADS-B
Sun 09:20:44 AM 25.7850 -80.3380 88° East 153 176 300 -913 Descending FlightAware ADS-B
Sun 09:21:13 AM 25.7860 -80.3170 87° East 154 177 -621 Descending FlightAware ADS-B
Sun 09:21:38 AM 25.7860 -80.3000 90° East 154 177  Level FlightAware ADS-B
Sun 09:21:52 AM 25.7870 -80.2910 83° East 56 64  Level FlightAware ADS-B
Sun 09:22:16 AM 25.7880 -80.2870 74° East 22 25  Level FlightAware ADS-B
Sun 09:22:25 AM 25.7890 -80.2870 360° North 21 24  Level FlightAware ADS-B
Sun 09:22:48 AM 25.7900 -80.2870 360° North 2 2  Level FlightAware ADS-B

Login

Don't have an account? Register now (free) for customized features, flight alerts, and more!